Cook, MN

6:39 PM CDT on May 26, 2018 (GMT -0500)
Cook Municipal

Weather History for KCQM - September, 2012

Change the Weather History Date:

Monday, September 3, 2012

  Actual Average Record
Temperature  
Mean Temperature 68 °F -  
Max Temperature 84 °F 70 °F 84 °F (2004)
Min Temperature 53 °F 48 °F 30 °F (1997)
Cooling Degree Days 4    
Growing Degree Days 18 (Base 50)    
Moisture  
Dew Point 53 °F    
Average Humidity 62    
Maximum Humidity 100    
Minimum Humidity 23    
Precipitation  
Precipitation 0.00 in - - ()
Sea Level Pressure  
Sea Level Pressure 29.89 in    
Wind  
Wind Speed 2 mph (WSW)    
Max Wind Speed 8 mph    
Max Gust Speed -    
Visibility 8 miles    
Events Fog    
Averages and records for this station are not official NWS values.
T = Trace of Precipitation, MM = Missing Value Source: NWS Daily Summary

Daily Weather History Graph

Daily Weather History Graph

Search for Another Location

Airport or City:

Astronomy

Sep. 03, 2012 Rise Set
Actual Time 6:32 AM CDT 7:46 PM CDT
Civil Twilight 6:00 AM CDT 8:18 PM CDT
Nautical Twilight 5:22 AM CDT 8:56 PM CDT
Astronomical Twilight 4:40 AM CDT 9:37 PM CDT
Moon 8:44 PM CDT (9/3) 10:00 AM CDT (9/3)
Length of Visible Light 14h 17m
Length of Day
13h 14m
Waning Gibbous, 90% of the Moon is Illuminated
Sep 3
Waning Gibbous
Sep 8
Last Quarter
Sep 15
New
Sep 22
First Quarter
Sep 29
Full

Hourly Weather History & Observations

Time (CDT) Temp. Dew Point Humidity Pressure Visibility Wind Dir Wind Speed Gust Speed Precip Events Conditions
12:17 AM 71.6 °F 62.6 °F 73% 29.83 in 10.0 mi Calm Calm - N/A   Scattered Clouds
12:36 AM 69.8 °F 62.6 °F 78% 29.84 in 10.0 mi Calm Calm - N/A   Clear
12:56 AM 69.8 °F 62.6 °F 78% 29.85 in 10.0 mi Calm Calm - N/A   Mostly Cloudy
1:16 AM 69.8 °F 62.6 °F 78% 29.85 in 10.0 mi Calm Calm - N/A   Scattered Clouds
1:36 AM 68.0 °F 62.6 °F 83% 29.85 in 10.0 mi SSW 3.5 mph - N/A   Clear
1:57 AM 66.2 °F 62.6 °F 88% 29.85 in 10.0 mi Calm Calm - N/A   Clear
2:16 AM 66.2 °F 62.6 °F 88% 29.85 in 10.0 mi Calm Calm - N/A   Clear
2:36 AM 64.4 °F 60.8 °F 88% 29.86 in 10.0 mi Calm Calm - N/A   Clear
2:57 AM 62.6 °F 60.8 °F 94% 29.86 in 10.0 mi Calm Calm - N/A   Clear
3:16 AM 64.4 °F 62.6 °F 94% 29.86 in 10.0 mi Calm Calm - N/A   Clear
3:37 AM 62.6 °F 60.8 °F 94% 29.86 in 7.0 mi Calm Calm - N/A   Clear
3:56 AM 62.6 °F 60.8 °F 94% 29.87 in 3.0 mi Calm Calm - N/A   Clear
4:17 AM 60.8 °F 59.0 °F 94% 29.87 in 5.0 mi Calm Calm - N/A   Clear
4:36 AM 60.8 °F 60.8 °F 100% 29.87 in 2.5 mi Calm Calm - N/A   Clear
5:17 AM 59.0 °F 57.2 °F 94% 29.88 in 2.0 mi Calm Calm - N/A   Clear
5:36 AM 57.2 °F 57.2 °F 100% 29.88 in 0.2 mi Calm Calm - N/A Fog Fog
5:56 AM 57.2 °F 55.4 °F 94% 29.89 in 0.2 mi Calm Calm - N/A Fog Fog
6:17 AM 57.2 °F 55.4 °F 94% 29.89 in 0.2 mi Calm Calm - N/A Fog Fog
6:36 AM 55.4 °F 55.4 °F 100% 29.89 in 0.2 mi Calm Calm - N/A Fog Fog
6:56 AM 55.4 °F 53.6 °F 94% 29.89 in 0.2 mi Calm Calm - N/A Fog Fog
7:17 AM 53.6 °F 53.6 °F 100% 29.90 in 0.2 mi Calm Calm - N/A Fog Fog
7:27 AM 55.4 °F 55.4 °F 100% 29.90 in 0.2 mi Calm Calm - N/A Fog Fog
8:01 AM 59.0 °F 57.2 °F 94% 29.90 in 0.5 mi Calm Calm - N/A Fog Fog
8:16 AM 60.8 °F 60.8 °F 100% 29.91 in 2.5 mi Calm Calm - N/A   Scattered Clouds
8:36 AM 62.6 °F 60.8 °F 94% 29.90 in 10.0 mi Calm Calm - N/A   Clear
8:57 AM 62.6 °F 62.6 °F 100% 29.91 in 10.0 mi Calm Calm - N/A   Clear
9:16 AM 64.4 °F 62.6 °F 94% 29.91 in 10.0 mi Calm Calm - N/A   Clear
9:37 AM 69.8 °F 60.8 °F 73% 29.91 in 10.0 mi SW 3.5 mph - N/A   Clear
9:57 AM 71.6 °F 60.8 °F 69% 29.92 in 10.0 mi West 3.5 mph - N/A   Clear
10:16 AM 73.4 °F 59.0 °F 61% 29.92 in 10.0 mi West 3.5 mph - N/A   Clear
10:37 AM 75.2 °F 59.0 °F 57% 29.92 in 10.0 mi WNW 3.5 mph - N/A   Clear
10:57 AM 75.2 °F 57.2 °F 53% 29.92 in 10.0 mi West 3.5 mph - N/A   Clear
11:16 AM 77.0 °F 55.4 °F 47% 29.92 in 10.0 mi West 3.5 mph - N/A   Clear
11:37 AM 78.8 °F 55.4 °F 44% 29.92 in 10.0 mi WSW 5.8 mph - N/A   Clear
11:57 AM 80.6 °F 50.0 °F 34% 29.92 in 10.0 mi West 8.1 mph - N/A   Clear
12:16 PM 80.6 °F 48.2 °F 32% 29.92 in 10.0 mi NW 5.8 mph - N/A   Clear
12:37 PM 80.6 °F 46.4 °F 30% 29.92 in 10.0 mi West 6.9 mph - N/A   Clear
12:56 PM 82.4 °F 46.4 °F 28% 29.91 in 10.0 mi West 8.1 mph - N/A   Clear
1:16 PM 82.4 °F 46.4 °F 28% 29.91 in 10.0 mi West 5.8 mph - N/A   Clear
1:36 PM 82.4 °F 46.4 °F 28% 29.90 in 10.0 mi West 6.9 mph - N/A   Clear
1:56 PM 84.2 °F 46.4 °F 27% 29.90 in 10.0 mi WNW 5.8 mph - N/A   Clear
2:17 PM 84.2 °F 44.6 °F 25% 29.90 in 10.0 mi West 6.9 mph - N/A   Clear
2:36 PM 84.2 °F 44.6 °F 25% 29.90 in 10.0 mi West 3.5 mph - N/A   Clear
2:56 PM 84.2 °F 42.8 °F 23% 29.89 in 10.0 mi Calm Calm - N/A   Clear
3:17 PM 84.2 °F 44.6 °F 25% 29.89 in 10.0 mi WSW 8.1 mph - N/A   Clear
3:36 PM 84.2 °F 42.8 °F 23% 29.89 in 10.0 mi West 5.8 mph - N/A   Clear
3:56 PM 84.2 °F 44.6 °F 25% 29.88 in 10.0 mi WSW 3.5 mph - N/A   Clear
4:17 PM 84.2 °F 42.8 °F 23% 29.89 in 10.0 mi West 5.8 mph - N/A   Clear
4:36 PM 84.2 °F 42.8 °F 23% 29.89 in 10.0 mi West 3.5 mph - N/A   Clear
4:56 PM 84.2 °F 44.6 °F 25% 29.89 in 10.0 mi SW 3.5 mph - N/A   Clear
5:17 PM 84.2 °F 44.6 °F 25% 29.89 in 10.0 mi WSW 8.1 mph - N/A   Clear
5:36 PM 84.2 °F 44.6 °F 25% 29.89 in 10.0 mi SW 5.8 mph - N/A   Clear
5:56 PM 82.4 °F 44.6 °F 26% 29.88 in 10.0 mi SSW 6.9 mph - N/A   Clear
6:17 PM 80.6 °F 46.4 °F 30% 29.88 in 10.0 mi SW 4.6 mph - N/A   Clear
6:36 PM 78.8 °F 46.4 °F 32% 29.88 in 10.0 mi Calm Calm - N/A   Clear
6:56 PM 75.2 °F 48.2 °F 38% 29.88 in 10.0 mi Calm Calm - N/A   Clear
7:17 PM 71.6 °F 51.8 °F 50% 29.88 in 10.0 mi Calm Calm - N/A   Clear
7:36 PM 68.0 °F 53.6 °F 60% 29.88 in 10.0 mi Calm Calm - N/A   Clear
7:57 PM 69.8 °F 53.6 °F 56% 29.89 in 10.0 mi Calm Calm - N/A   Clear
8:17 PM 66.2 °F 53.6 °F 64% 29.90 in 10.0 mi Calm Calm - N/A   Clear
8:36 PM 66.2 °F 53.6 °F 64% 29.90 in 10.0 mi Calm Calm - N/A   Clear
8:57 PM 68.0 °F 51.8 °F 56% 29.91 in 10.0 mi SW 3.5 mph - N/A   Clear
9:16 PM 71.6 °F 48.2 °F 43% 29.91 in 10.0 mi West 6.9 mph - N/A   Scattered Clouds
9:37 PM 71.6 °F 48.2 °F 43% 29.92 in 10.0 mi SW 4.6 mph - N/A   Clear
9:57 PM 71.6 °F 48.2 °F 43% 29.90 in 10.0 mi Calm Calm - N/A   Scattered Clouds
10:16 PM 66.2 °F 51.8 °F 60% 29.87 in 10.0 mi Calm Calm - N/A   Scattered Clouds
10:37 PM 64.4 °F 51.8 °F 64% 29.88 in 10.0 mi Calm Calm - N/A   Clear
10:56 PM 64.4 °F 51.8 °F 64% 29.90 in 10.0 mi Calm Calm - N/A   Clear
11:16 PM 60.8 °F 51.8 °F 72% 29.89 in 10.0 mi Calm Calm - N/A   Clear
11:37 PM 59.0 °F 51.8 °F 77% 29.88 in 10.0 mi Calm Calm - N/A   Clear
11:56 PM 57.2 °F 51.8 °F 82% 29.89 in 10.0 mi Calm Calm - N/A   Clear